sensor_id;sensor_type;location;lat;lon;timestamp;pressure;altitude;pressure_sealevel;temperature;humidity
57668;BME280;43499;52.366;12.912;2023-07-30T00:00:30;100461.69;;;17.01;100.00
57668;BME280;43499;52.366;12.912;2023-07-30T00:01:32;100478.59;;;17.03;100.00
57668;BME280;43499;52.366;12.912;2023-07-30T00:02:33;100484.78;;;17.02;100.00
57668;BME280;43499;52.366;12.912;2023-07-30T00:03:34;100480.94;;;16.97;100.00
57668;BME280;43499;52.366;12.912;2023-07-30T00:04:36;100463.94;;;16.93;100.00
57668;BME280;43499;52.366;12.912;2023-07-30T00:05:37;100468.31;;;16.93;100.00
57668;BME280;43499;52.366;12.912;2023-07-30T00:06:38;100462.94;;;16.91;100.00
57668;BME280;43499;52.366;12.912;2023-07-30T00:07:39;100479.47;;;17.02;100.00
57668;BME280;43499;52.366;12.912;2023-07-30T00:08:40;100467.50;;;16.94;100.00
57668;BME280;43499;52.366;12.912;2023-07-30T00:09:41;100460.03;;;16.87;100.00
57668;BME280;43499;52.366;12.912;2023-07-30T00:10:42;100480.19;;;17.00;100.00
57668;BME280;43499;52.366;12.912;2023-07-30T00:11:43;100474.31;;;16.89;100.00
57668;BME280;43499;52.366;12.912;2023-07-30T00:12:44;100482.41;;;16.92;100.00
57668;BME280;43499;52.366;12.912;2023-07-30T00:13:45;100467.19;;;16.88;100.00
57668;BME280;43499;52.366;12.912;2023-07-30T00:14:47;100472.91;;;16.95;100.00
57668;BME280;43499;52.366;12.912;2023-07-30T00:15:48;100466.34;;;16.89;100.00
57668;BME280;43499;52.366;12.912;2023-07-30T00:16:49;100451.16;;;16.86;100.00
57668;BME280;43499;52.366;12.912;2023-07-30T00:17:50;100464.59;;;16.89;100.00
57668;BME280;43499;52.366;12.912;2023-07-30T00:18:51;100470.06;;;16.92;100.00
57668;BME280;43499;52.366;12.912;2023-07-30T00:19:52;100470.00;;;16.91;100.00
57668;BME280;43499;52.366;12.912;2023-07-30T00:20:53;100458.03;;;16.83;100.00
57668;BME280;43499;52.366;12.912;2023-07-30T00:21:55;100467.50;;;16.94;100.00
57668;BME280;43499;52.366;12.912;2023-07-30T00:22:56;100464.69;;;16.91;100.00
57668;BME280;43499;52.366;12.912;2023-07-30T00:23:57;100452.00;;;16.85;100.00
57668;BME280;43499;52.366;12.912;2023-07-30T00:24:58;100464.75;;;16.92;100.00
57668;BME280;43499;52.366;12.912;2023-07-30T00:26:00;100463.00;;;16.93;100.00
57668;BME280;43499;52.366;12.912;2023-07-30T00:27:01;100469.06;;;16.90;100.00
57668;BME280;43499;52.366;12.912;2023-07-30T00:28:02;100461.16;;;16.92;100.00
57668;BME280;43499;52.366;12.912;2023-07-30T00:29:03;100457.69;;;16.93;100.00
57668;BME280;43499;52.366;12.912;2023-07-30T00:30:04;100460.28;;;16.91;100.00
57668;BME280;43499;52.366;12.912;2023-07-30T00:31:06;100455.72;;;16.89;100.00
57668;BME280;43499;52.366;12.912;2023-07-30T00:32:07;100447.53;;;16.84;100.00
57668;BME280;43499;52.366;12.912;2023-07-30T00:33:08;100450.25;;;16.86;100.00
57668;BME280;43499;52.366;12.912;2023-07-30T00:34:09;100448.59;;;16.88;100.00
57668;BME280;43499;52.366;12.912;2023-07-30T00:35:10;100446.44;;;16.80;100.00
57668;BME280;43499;52.366;12.912;2023-07-30T00:36:11;100450.03;;;16.81;100.00
57668;BME280;43499;52.366;12.912;2023-07-30T00:37:13;100447.13;;;16.76;100.00
57668;BME280;43499;52.366;12.912;2023-07-30T00:38:14;100439.75;;;16.71;100.00
57668;BME280;43499;52.366;12.912;2023-07-30T00:39:16;100422.44;;;16.61;100.00
57668;BME280;43499;52.366;12.912;2023-07-30T00:41:24;100421.31;;;16.56;100.00
57668;BME280;43499;52.366;12.912;2023-07-30T00:42:25;100455.09;;;16.76;100.00
57668;BME280;43499;52.366;12.912;2023-07-30T00:43:26;100444.97;;;16.69;100.00
57668;BME280;43499;52.366;12.912;2023-07-30T00:44:27;100436.88;;;16.66;100.00
57668;BME280;43499;52.366;12.912;2023-07-30T00:45:31;100448.78;;;16.74;100.00
57668;BME280;43499;52.366;12.912;2023-07-30T00:46:32;100449.56;;;16.72;100.00
57668;BME280;43499;52.366;12.912;2023-07-30T00:47:34;100431.81;;;16.54;100.00
57668;BME280;43499;52.366;12.912;2023-07-30T00:48:35;100453.28;;;16.59;100.00
57668;BME280;43499;52.366;12.912;2023-07-30T00:49:36;100456.88;;;16.59;100.00
57668;BME280;43499;52.366;12.912;2023-07-30T00:50:39;100467.03;;;16.68;100.00
57668;BME280;43499;52.366;12.912;2023-07-30T00:51:40;100456.34;;;16.66;100.00
57668;BME280;43499;52.366;12.912;2023-07-30T00:52:42;100460.22;;;16.73;100.00
57668;BME280;43499;52.366;12.912;2023-07-30T00:53:43;100462.41;;;16.64;100.00
57668;BME280;43499;52.366;12.912;2023-07-30T00:54:45;100467.97;;;16.52;100.00
57668;BME280;43499;52.366;12.912;2023-07-30T00:55:46;100456.47;;;16.52;100.00
57668;BME280;43499;52.366;12.912;2023-07-30T00:56:51;100452.75;;;16.48;100.00
57668;BME280;43499;52.366;12.912;2023-07-30T00:57:53;100446.59;;;16.49;100.00
57668;BME280;43499;52.366;12.912;2023-07-30T00:58:54;100447.25;;;16.45;100.00
57668;BME280;43499;52.366;12.912;2023-07-30T00:59:56;100440.91;;;16.41;100.00
57668;BME280;43499;52.366;12.912;2023-07-30T01:00:58;100469.06;;;16.56;100.00
57668;BME280;43499;52.366;12.912;2023-07-30T01:01:59;100461.59;;;16.48;100.00
57668;BME280;43499;52.366;12.912;2023-07-30T01:03:00;100467.91;;;16.50;100.00
57668;BME280;43499;52.366;12.912;2023-07-30T01:04:01;100451.16;;;16.35;100.00
57668;BME280;43499;52.366;12.912;2023-07-30T01:05:03;100471.06;;;16.43;100.00
57668;BME280;43499;52.366;12.912;2023-07-30T01:06:06;100457.22;;;16.32;100.00
57668;BME280;43499;52.366;12.912;2023-07-30T01:07:07;100473.56;;;16.40;100.00
57668;BME280;43499;52.366;12.912;2023-07-30T01:08:08;100467.50;;;16.43;100.00
57668;BME280;43499;52.366;12.912;2023-07-30T01:09:10;100461.44;;;16.45;100.00
57668;BME280;43499;52.366;12.912;2023-07-30T01:10:11;100456.63;;;16.38;100.00
57668;BME280;43499;52.366;12.912;2023-07-30T01:11:14;100454.81;;;16.37;100.00
57668;BME280;43499;52.366;12.912;2023-07-30T01:12:15;100450.34;;;16.36;100.00
57668;BME280;43499;52.366;12.912;2023-07-30T01:13:17;100472.03;;;16.45;100.00
57668;BME280;43499;52.366;12.912;2023-07-30T01:14:20;100468.06;;;16.37;100.00
57668;BME280;43499;52.366;12.912;2023-07-30T01:15:21;100469.84;;;16.37;100.00
57668;BME280;43499;52.366;12.912;2023-07-30T01:16:23;100467.06;;;16.35;100.00
57668;BME280;43499;52.366;12.912;2023-07-30T01:17:24;100450.78;;;16.27;100.00
57668;BME280;43499;52.366;12.912;2023-07-30T01:18:25;100469.13;;;16.41;100.00
57668;BME280;43499;52.366;12.912;2023-07-30T01:19:26;100477.09;;;16.41;100.00
57668;BME280;43499;52.366;12.912;2023-07-30T01:20:31;100439.66;;;16.18;100.00
57668;BME280;43499;52.366;12.912;2023-07-30T01:21:35;100454.41;;;16.29;100.00
57668;BME280;43499;52.366;12.912;2023-07-30T01:22:37;100451.66;;;16.28;100.00
57668;BME280;43499;52.366;12.912;2023-07-30T01:23:38;100471.66;;;16.38;100.00
57668;BME280;43499;52.366;12.912;2023-07-30T01:24:39;100469.00;;;16.38;100.00
57668;BME280;43499;52.366;12.912;2023-07-30T01:25:41;100466.00;;;16.31;100.00
57668;BME280;43499;52.366;12.912;2023-07-30T01:26:44;100478.69;;;16.37;100.00
57668;BME280;43499;52.366;12.912;2023-07-30T01:27:50;100482.09;;;16.34;100.00
57668;BME280;43499;52.366;12.912;2023-07-30T01:28:56;100480.03;;;16.29;100.00
57668;BME280;43499;52.366;12.912;2023-07-30T01:30:19;100471.41;;;16.16;100.00
57668;BME280;43499;52.366;12.912;2023-07-30T01:31:24;100475.13;;;16.20;100.00
57668;BME280;43499;52.366;12.912;2023-07-30T01:32:27;100476.63;;;16.15;100.00
57668;BME280;43499;52.366;12.912;2023-07-30T01:33:30;100464.84;;;16.10;100.00
57668;BME280;43499;52.366;12.912;2023-07-30T01:34:34;100473.53;;;16.24;100.00
57668;BME280;43499;52.366;12.912;2023-07-30T01:35:36;100441.81;;;16.09;100.00
57668;BME280;43499;52.366;12.912;2023-07-30T01:36:39;100477.38;;;16.29;100.00
57668;BME280;43499;52.366;12.912;2023-07-30T01:37:42;100467.59;;;16.28;100.00
57668;BME280;43499;52.366;12.912;2023-07-30T01:38:45;100463.63;;;16.19;100.00
57668;BME280;43499;52.366;12.912;2023-07-30T01:39:47;100446.34;;;16.11;100.00
57668;BME280;43499;52.366;12.912;2023-07-30T01:40:49;100462.03;;;16.23;100.00
57668;BME280;43499;52.366;12.912;2023-07-30T01:41:53;100450.94;;;16.14;100.00
57668;BME280;43499;52.366;12.912;2023-07-30T01:42:55;100476.19;;;16.24;100.00
57668;BME280;43499;52.366;12.912;2023-07-30T01:43:56;100470.56;;;16.17;100.00
57668;BME280;43499;52.366;12.912;2023-07-30T01:44:57;100465.91;;;16.13;100.00
57668;BME280;43499;52.366;12.912;2023-07-30T01:45:58;100476.53;;;16.13;100.00
57668;BME280;43499;52.366;12.912;2023-07-30T01:46:59;100474.88;;;16.15;100.00
57668;BME280;43499;52.366;12.912;2023-07-30T01:48:00;100443.06;;;15.99;100.00
57668;BME280;43499;52.366;12.912;2023-07-30T01:49:01;100461.19;;;16.08;100.00
57668;BME280;43499;52.366;12.912;2023-07-30T01:50:03;100482.66;;;16.12;100.00
57668;BME280;43499;52.366;12.912;2023-07-30T01:51:04;100481.69;;;16.10;100.00
57668;BME280;43499;52.366;12.912;2023-07-30T01:52:06;100473.19;;;16.01;100.00
57668;BME280;43499;52.366;12.912;2023-07-30T01:53:07;100470.72;;;16.04;100.00
57668;BME280;43499;52.366;12.912;2023-07-30T01:54:08;100485.22;;;16.11;100.00
57668;BME280;43499;52.366;12.912;2023-07-30T01:55:09;100485.88;;;16.07;100.00
57668;BME280;43499;52.366;12.912;2023-07-30T01:56:10;100472.94;;;15.96;100.00
57668;BME280;43499;52.366;12.912;2023-07-30T01:57:11;100487.47;;;16.03;100.00
57668;BME280;43499;52.366;12.912;2023-07-30T01:58:13;100485.81;;;16.05;100.00
57668;BME280;43499;52.366;12.912;2023-07-30T01:59:14;100454.06;;;15.90;100.00
57668;BME280;43499;52.366;12.912;2023-07-30T02:00:16;100462.69;;;16.02;100.00
57668;BME280;43499;52.366;12.912;2023-07-30T02:01:17;100488.31;;;16.18;100.00
57668;BME280;43499;52.366;12.912;2023-07-30T02:02:18;100449.34;;;15.84;100.00
57668;BME280;43499;52.366;12.912;2023-07-30T02:03:19;100476.63;;;15.83;100.00
57668;BME280;43499;52.366;12.912;2023-07-30T02:04:20;100468.31;;;15.61;100.00
57668;BME280;43499;52.366;12.912;2023-07-30T02:05:21;100487.28;;;15.68;100.00
57668;BME280;43499;52.366;12.912;2023-07-30T02:06:22;100472.25;;;15.52;100.00
57668;BME280;43499;52.366;12.912;2023-07-30T02:07:23;100494.97;;;15.64;100.00
57668;BME280;43499;52.366;12.912;2023-07-30T02:08:24;100491.78;;;15.54;100.00
57668;BME280;43499;52.366;12.912;2023-07-30T02:09:26;100490.63;;;15.49;100.00
57668;BME280;43499;52.366;12.912;2023-07-30T02:10:27;100489.69;;;15.49;100.00
57668;BME280;43499;52.366;12.912;2023-07-30T02:11:28;100482.03;;;15.38;100.00
57668;BME280;43499;52.366;12.912;2023-07-30T02:12:29;100494.91;;;15.47;100.00
57668;BME280;43499;52.366;12.912;2023-07-30T02:13:30;100480.47;;;15.42;100.00
57668;BME280;43499;52.366;12.912;2023-07-30T02:14:32;100478.13;;;15.47;100.00
57668;BME280;43499;52.366;12.912;2023-07-30T02:15:41;100471.06;;;15.47;100.00
57668;BME280;43499;52.366;12.912;2023-07-30T02:16:43;100485.59;;;15.54;100.00
57668;BME280;43499;52.366;12.912;2023-07-30T02:17:44;100495.38;;;15.55;100.00
57668;BME280;43499;52.366;12.912;2023-07-30T02:18:45;100474.72;;;15.49;100.00
57668;BME280;43499;52.366;12.912;2023-07-30T02:19:46;100479.34;;;15.53;100.00
57668;BME280;43499;52.366;12.912;2023-07-30T02:20:47;100488.50;;;15.58;100.00
57668;BME280;43499;52.366;12.912;2023-07-30T02:21:48;100478.53;;;15.54;100.00
57668;BME280;43499;52.366;12.912;2023-07-30T02:22:50;100494.69;;;15.59;100.00
57668;BME280;43499;52.366;12.912;2023-07-30T02:23:51;100493.59;;;15.55;100.00
57668;BME280;43499;52.366;12.912;2023-07-30T02:24:52;100495.38;;;15.55;100.00
57668;BME280;43499;52.366;12.912;2023-07-30T02:25:53;100501.28;;;15.51;100.00
57668;BME280;43499;52.366;12.912;2023-07-30T02:26:54;100477.75;;;15.40;100.00
57668;BME280;43499;52.366;12.912;2023-07-30T02:27:56;100483.25;;;15.43;100.00
57668;BME280;43499;52.366;12.912;2023-07-30T02:28:57;100493.72;;;15.57;100.00
57668;BME280;43499;52.366;12.912;2023-07-30T02:30:01;100494.81;;;15.61;100.00
57668;BME280;43499;52.366;12.912;2023-07-30T02:31:02;100494.88;;;15.62;100.00
57668;BME280;43499;52.366;12.912;2023-07-30T02:32:03;100473.72;;;15.47;100.00
57668;BME280;43499;52.366;12.912;2023-07-30T02:33:04;100496.69;;;15.63;100.00
57668;BME280;43499;52.366;12.912;2023-07-30T02:34:05;100494.88;;;15.62;100.00
57668;BME280;43499;52.366;12.912;2023-07-30T02:35:07;100496.97;;;15.68;100.00
57668;BME280;43499;52.366;12.912;2023-07-30T02:36:09;100501.09;;;15.63;100.00
57668;BME280;43499;52.366;12.912;2023-07-30T02:37:10;100489.81;;;15.50;100.00
57668;BME280;43499;52.366;12.912;2023-07-30T02:38:11;100506.69;;;15.52;100.00
57668;BME280;43499;52.366;12.912;2023-07-30T02:39:12;100499.75;;;15.39;100.00
57668;BME280;43499;52.366;12.912;2023-07-30T02:40:13;100500.41;;;15.50;100.00
57668;BME280;43499;52.366;12.912;2023-07-30T02:41:14;100499.69;;;15.38;100.00
57668;BME280;43499;52.366;12.912;2023-07-30T02:42:15;100478.59;;;15.24;100.00
57668;BME280;43499;52.366;12.912;2023-07-30T02:43:16;100508.72;;;15.41;100.00
57668;BME280;43499;52.366;12.912;2023-07-30T02:44:17;100491.38;;;15.32;100.00
57668;BME280;43499;52.366;12.912;2023-07-30T02:45:18;100508.44;;;15.37;100.00
57668;BME280;43499;52.366;12.912;2023-07-30T02:46:20;100497.88;;;15.22;100.00
57668;BME280;43499;52.366;12.912;2023-07-30T02:47:21;100504.19;;;15.24;100.00
57668;BME280;43499;52.366;12.912;2023-07-30T02:48:22;100508.19;;;15.32;100.00
57668;BME280;43499;52.366;12.912;2023-07-30T02:49:23;100501.97;;;15.32;100.00
57668;BME280;43499;52.366;12.912;2023-07-30T02:50:24;100485.53;;;15.22;100.00
57668;BME280;43499;52.366;12.912;2023-07-30T02:51:25;100503.44;;;15.26;100.00
57668;BME280;43499;52.366;12.912;2023-07-30T02:52:26;100508.19;;;15.32;100.00
57668;BME280;43499;52.366;12.912;2023-07-30T02:53:27;100509.34;;;15.37;100.00
57668;BME280;43499;52.366;12.912;2023-07-30T02:54:28;100507.38;;;15.33;100.00
57668;BME280;43499;52.366;12.912;2023-07-30T02:55:29;100502.38;;;15.23;100.00
57668;BME280;43499;52.366;12.912;2023-07-30T02:56:31;100520.50;;;15.32;100.00
57668;BME280;43499;52.366;12.912;2023-07-30T02:57:32;100515.94;;;15.29;100.00
57668;BME280;43499;52.366;12.912;2023-07-30T02:58:33;100516.41;;;15.22;100.00
57668;BME280;43499;52.366;12.912;2023-07-30T02:59:34;100517.88;;;15.17;100.00
57668;BME280;43499;52.366;12.912;2023-07-30T03:00:38;100516.16;;;15.17;100.00
57668;BME280;43499;52.366;12.912;2023-07-30T03:01:40;100505.00;;;15.08;100.00
57668;BME280;43499;52.366;12.912;2023-07-30T03:02:41;100526.28;;;15.24;100.00
57668;BME280;43499;52.366;12.912;2023-07-30T03:03:42;100508.75;;;15.11;100.00
57668;BME280;43499;52.366;12.912;2023-07-30T03:04:43;100523.91;;;15.14;100.00
57668;BME280;43499;52.366;12.912;2023-07-30T03:05:44;100507.47;;;15.05;100.00
57668;BME280;43499;52.366;12.912;2023-07-30T03:06:45;100526.47;;;15.13;100.00
57668;BME280;43499;52.366;12.912;2023-07-30T03:07:46;100504.38;;;14.97;100.00
57668;BME280;43499;52.366;12.912;2023-07-30T03:08:48;100491.41;;;15.02;100.00
57668;BME280;43499;52.366;12.912;2023-07-30T03:09:49;100528.03;;;15.24;100.00
57668;BME280;43499;52.366;12.912;2023-07-30T03:10:50;100523.88;;;15.29;100.00
57668;BME280;43499;52.366;12.912;2023-07-30T03:11:52;100510.38;;;15.24;100.00
57668;BME280;43499;52.366;12.912;2023-07-30T03:12:53;100516.03;;;15.31;100.00
57668;BME280;43499;52.366;12.912;2023-07-30T03:13:54;100513.47;;;15.32;100.00
57668;BME280;43499;52.366;12.912;2023-07-30T03:14:55;100524.59;;;15.41;100.00
57668;BME280;43499;52.366;12.912;2023-07-30T03:15:56;100517.47;;;15.40;100.00
57668;BME280;43499;52.366;12.912;2023-07-30T03:16:57;100527.59;;;15.48;100.00
57668;BME280;43499;52.366;12.912;2023-07-30T03:17:58;100519.94;;;15.37;100.00
57668;BME280;43499;52.366;12.912;2023-07-30T03:18:59;100525.34;;;15.39;100.00
57668;BME280;43499;52.366;12.912;2023-07-30T03:20:01;100526.91;;;15.35;100.00
57668;BME280;43499;52.366;12.912;2023-07-30T03:21:02;100514.22;;;15.30;100.00
57668;BME280;43499;52.366;12.912;2023-07-30T03:22:04;100529.81;;;15.40;100.00
57668;BME280;43499;52.366;12.912;2023-07-30T03:23:05;100529.00;;;15.41;100.00
57668;BME280;43499;52.366;12.912;2023-07-30T03:24:06;100504.34;;;15.27;100.00
57668;BME280;43499;52.366;12.912;2023-07-30T03:25:07;100529.34;;;15.47;100.00
57668;BME280;43499;52.366;12.912;2023-07-30T03:26:08;100521.59;;;15.50;100.00
57668;BME280;43499;52.366;12.912;2023-07-30T03:27:10;100523.50;;;15.53;100.00
57668;BME280;43499;52.366;12.912;2023-07-30T03:28:11;100510.88;;;15.49;100.00
57668;BME280;43499;52.366;12.912;2023-07-30T03:29:12;100511.81;;;15.49;100.00
57668;BME280;43499;52.366;12.912;2023-07-30T03:30:13;100522.88;;;15.57;100.00
57668;BME280;43499;52.366;12.912;2023-07-30T03:31:15;100526.47;;;15.59;100.00
57668;BME280;43499;52.366;12.912;2023-07-30T03:32:16;100502.69;;;15.44;100.00
57668;BME280;43499;52.366;12.912;2023-07-30T03:33:17;100518.47;;;15.57;100.00
57668;BME280;43499;52.366;12.912;2023-07-30T03:34:18;100520.53;;;15.63;100.00
57668;BME280;43499;52.366;12.912;2023-07-30T03:35:19;100487.72;;;15.45;100.00
57668;BME280;43499;52.366;12.912;2023-07-30T03:36:20;100472.38;;;15.39;100.00
57668;BME280;43499;52.366;12.912;2023-07-30T03:37:22;100514.44;;;15.64;100.00
57668;BME280;43499;52.366;12.912;2023-07-30T03:38:23;100509.19;;;15.66;100.00
57668;BME280;43499;52.366;12.912;2023-07-30T03:39:24;100500.00;;;15.59;100.00
57668;BME280;43499;52.366;12.912;2023-07-30T03:40:25;100522.25;;;15.78;100.00
57668;BME280;43499;52.366;12.912;2023-07-30T03:41:27;100502.00;;;15.63;100.00
57668;BME280;43499;52.366;12.912;2023-07-30T03:42:28;100528.84;;;15.84;100.00
57668;BME280;43499;52.366;12.912;2023-07-30T03:43:29;100522.88;;;15.88;100.00
57668;BME280;43499;52.366;12.912;2023-07-30T03:44:30;100476.34;;;15.62;100.00
57668;BME280;43499;52.366;12.912;2023-07-30T03:45:31;100511.19;;;15.85;100.00
57668;BME280;43499;52.366;12.912;2023-07-30T03:46:33;100523.41;;;15.98;100.00
57668;BME280;43499;52.366;12.912;2023-07-30T03:47:34;100536.56;;;15.96;100.00
57668;BME280;43499;52.366;12.912;2023-07-30T03:48:38;100522.31;;;15.94;100.00
57668;BME280;43499;52.366;12.912;2023-07-30T03:49:39;100525.97;;;15.96;100.00
57668;BME280;43499;52.366;12.912;2023-07-30T03:50:40;100532.44;;;16.01;100.00
57668;BME280;43499;52.366;12.912;2023-07-30T03:51:41;100528.16;;;16.03;100.00
57668;BME280;43499;52.366;12.912;2023-07-30T03:52:42;100530.94;;;16.07;100.00
57668;BME280;43499;52.366;12.912;2023-07-30T03:53:43;100523.56;;;16.01;100.00
57668;BME280;43499;52.366;12.912;2023-07-30T03:54:44;100528.41;;;16.08;100.00
57668;BME280;43499;52.366;12.912;2023-07-30T03:55:45;100526.22;;;16.01;100.00
57668;BME280;43499;52.366;12.912;2023-07-30T03:56:47;100528.72;;;15.98;100.00
57668;BME280;43499;52.366;12.912;2023-07-30T03:57:48;100535.56;;;15.94;100.00
57668;BME280;43499;52.366;12.912;2023-07-30T03:58:49;100532.78;;;15.91;100.00
57668;BME280;43499;52.366;12.912;2023-07-30T03:59:50;100533.91;;;15.96;100.00
57668;BME280;43499;52.366;12.912;2023-07-30T04:00:51;100535.94;;;16.00;100.00
57668;BME280;43499;52.366;12.912;2023-07-30T04:01:52;100514.34;;;15.94;100.00
57668;BME280;43499;52.366;12.912;2023-07-30T04:02:53;100517.00;;;15.94;100.00
57668;BME280;43499;52.366;12.912;2023-07-30T04:03:54;100522.50;;;15.82;100.00
57668;BME280;43499;52.366;12.912;2023-07-30T04:04:55;100517.59;;;15.73;100.00
57668;BME280;43499;52.366;12.912;2023-07-30T04:05:56;100526.75;;;15.79;100.00
57668;BME280;43499;52.366;12.912;2023-07-30T04:06:57;100519.34;;;15.73;100.00
57668;BME280;43499;52.366;12.912;2023-07-30T04:07:58;100527.63;;;15.79;100.00
57668;BME280;43499;52.366;12.912;2023-07-30T04:09:00;100525.53;;;15.88;100.00
57668;BME280;43499;52.366;12.912;2023-07-30T04:10:01;100517.44;;;15.85;100.00
57668;BME280;43499;52.366;12.912;2023-07-30T04:11:02;100509.91;;;15.78;100.00
57668;BME280;43499;52.366;12.912;2023-07-30T04:12:03;100535.50;;;15.93;100.00
57668;BME280;43499;52.366;12.912;2023-07-30T04:13:05;100527.09;;;15.85;100.00
57668;BME280;43499;52.366;12.912;2023-07-30T04:14:08;100538.97;;;15.92;100.00
57668;BME280;43499;52.366;12.912;2023-07-30T04:15:09;100530.38;;;15.96;100.00
57668;BME280;43499;52.366;12.912;2023-07-30T04:16:11;100524.41;;;16.00;100.00
57668;BME280;43499;52.366;12.912;2023-07-30T04:17:12;100502.69;;;15.91;100.00
57668;BME280;43499;52.366;12.912;2023-07-30T04:18:13;100509.50;;;16.02;100.00
57668;BME280;43499;52.366;12.912;2023-07-30T04:19:14;100538.34;;;16.12;100.00
57668;BME280;43499;52.366;12.912;2023-07-30T04:20:15;100549.13;;;16.15;100.00
57668;BME280;43499;52.366;12.912;2023-07-30T04:21:16;100537.44;;;16.12;100.00
57668;BME280;43499;52.366;12.912;2023-07-30T04:22:17;100556.31;;;16.18;100.00
57668;BME280;43499;52.366;12.912;2023-07-30T04:23:18;100547.28;;;16.14;100.00
57668;BME280;43499;52.366;12.912;2023-07-30T04:24:20;100548.72;;;16.24;100.00
57668;BME280;43499;52.366;12.912;2023-07-30T04:25:21;100547.22;;;16.29;100.00
57668;BME280;43499;52.366;12.912;2023-07-30T04:26:22;100525.44;;;16.18;100.00
57668;BME280;43499;52.366;12.912;2023-07-30T04:27:23;100556.78;;;16.42;100.00
57668;BME280;43499;52.366;12.912;2023-07-30T04:28:24;100548.66;;;16.39;100.00
57668;BME280;43499;52.366;12.912;2023-07-30T04:29:25;100558.69;;;16.45;100.00
57668;BME280;43499;52.366;12.912;2023-07-30T04:30:26;100557.09;;;16.48;100.00
57668;BME280;43499;52.366;12.912;2023-07-30T04:31:28;100558.28;;;16.54;100.00
57668;BME280;43499;52.366;12.912;2023-07-30T04:32:29;100529.00;;;16.35;100.00
57668;BME280;43499;52.366;12.912;2023-07-30T04:33:31;100556.34;;;16.51;100.00
57668;BME280;43499;52.366;12.912;2023-07-30T04:34:32;100559.09;;;16.53;100.00
57668;BME280;43499;52.366;12.912;2023-07-30T04:35:33;100550.72;;;16.45;100.00
57668;BME280;43499;52.366;12.912;2023-07-30T04:36:34;100549.56;;;16.40;100.00
57668;BME280;43499;52.366;12.912;2023-07-30T04:37:36;100560.16;;;16.40;100.00
57668;BME280;43499;52.366;12.912;2023-07-30T04:38:37;100558.94;;;16.33;100.00
57668;BME280;43499;52.366;12.912;2023-07-30T04:39:38;100536.13;;;16.20;100.00
57668;BME280;43499;52.366;12.912;2023-07-30T04:40:39;100545.81;;;16.19;100.00
57668;BME280;43499;52.366;12.912;2023-07-30T04:41:40;100555.75;;;16.24;100.00
57668;BME280;43499;52.366;12.912;2023-07-30T04:42:42;100544.31;;;16.25;100.00
57668;BME280;43499;52.366;12.912;2023-07-30T04:43:44;100554.13;;;16.42;100.00
57668;BME280;43499;52.366;12.912;2023-07-30T04:44:45;100537.41;;;16.43;100.00
57668;BME280;43499;52.366;12.912;2023-07-30T04:45:49;100559.69;;;16.63;100.00
57668;BME280;43499;52.366;12.912;2023-07-30T04:46:51;100562.63;;;16.86;100.00
57668;BME280;43499;52.366;12.912;2023-07-30T04:47:52;100563.13;;;17.12;100.00
57668;BME280;43499;52.366;12.912;2023-07-30T04:48:53;100558.94;;;17.34;100.00
57668;BME280;43499;52.366;12.912;2023-07-30T04:49:54;100561.38;;;17.47;99.46
57668;BME280;43499;52.366;12.912;2023-07-30T04:50:56;100546.00;;;17.58;98.44
57668;BME280;43499;52.366;12.912;2023-07-30T04:51:57;100539.84;;;17.59;96.96
57668;BME280;43499;52.366;12.912;2023-07-30T04:52:58;100550.59;;;17.62;96.80
57668;BME280;43499;52.366;12.912;2023-07-30T04:53:59;100565.69;;;17.45;97.04
57668;BME280;43499;52.366;12.912;2023-07-30T04:55:01;100557.19;;;17.34;98.56
57668;BME280;43499;52.366;12.912;2023-07-30T04:56:02;100568.22;;;17.42;98.90
57668;BME280;43499;52.366;12.912;2023-07-30T04:57:04;100574.66;;;17.47;98.95
57668;BME280;43499;52.366;12.912;2023-07-30T04:58:06;100567.47;;;17.45;98.56
57668;BME280;43499;52.366;12.912;2023-07-30T04:59:07;100567.38;;;17.43;99.26
57668;BME280;43499;52.366;12.912;2023-07-30T05:00:08;100573.06;;;17.51;99.67
57668;BME280;43499;52.366;12.912;2023-07-30T05:01:10;100569.69;;;17.53;98.90
57668;BME280;43499;52.366;12.912;2023-07-30T05:02:11;100550.75;;;17.47;98.71
57668;BME280;43499;52.366;12.912;2023-07-30T05:03:12;100574.63;;;17.64;99.04
57668;BME280;43499;52.366;12.912;2023-07-30T05:04:13;100571.19;;;17.66;97.92
57668;BME280;43499;52.366;12.912;2023-07-30T05:05:14;100568.22;;;17.60;97.39
57668;BME280;43499;52.366;12.912;2023-07-30T05:06:15;100569.53;;;17.50;98.37
57668;BME280;43499;52.366;12.912;2023-07-30T05:07:16;100563.13;;;17.47;98.65
57668;BME280;43499;52.366;12.912;2023-07-30T05:08:17;100560.00;;;17.37;100.00
57668;BME280;43499;52.366;12.912;2023-07-30T05:09:18;100563.66;;;17.39;99.78
57668;BME280;43499;52.366;12.912;2023-07-30T05:10:19;100537.44;;;17.29;99.97
57668;BME280;43499;52.366;12.912;2023-07-30T05:11:20;100540.06;;;17.46;99.76
57668;BME280;43499;52.366;12.912;2023-07-30T05:12:21;100565.94;;;17.68;99.31
57668;BME280;43499;52.366;12.912;2023-07-30T05:13:22;100560.00;;;17.55;99.30
57668;BME280;43499;52.366;12.912;2023-07-30T05:14:23;100548.09;;;17.47;99.38